sensor_id;sensor_type;location;lat;lon;timestamp;P1;durP1;ratioP1;P2;durP2;ratioP2
53271;SDS011;39160;48.580;7.756;2023-06-10T00:04:45;7.68;;;4.30;;
53271;SDS011;39160;48.580;7.756;2023-06-10T00:09:36;4.95;;;4.00;;
53271;SDS011;39160;48.580;7.756;2023-06-10T00:14:27;5.60;;;4.30;;
53271;SDS011;39160;48.580;7.756;2023-06-10T00:19:18;5.30;;;4.13;;
53271;SDS011;39160;48.580;7.756;2023-06-10T00:24:09;5.93;;;4.30;;
53271;SDS011;39160;48.580;7.756;2023-06-10T00:29:01;7.03;;;4.80;;
53271;SDS011;39160;48.580;7.756;2023-06-10T00:33:52;7.30;;;4.97;;
53271;SDS011;39160;48.580;7.756;2023-06-10T00:38:43;4.75;;;4.25;;
53271;SDS011;39160;48.580;7.756;2023-06-10T00:43:33;5.20;;;4.50;;
53271;SDS011;39160;48.580;7.756;2023-06-10T00:48:24;5.05;;;4.43;;
53271;SDS011;39160;48.580;7.756;2023-06-10T00:53:16;5.28;;;4.65;;
53271;SDS011;39160;48.580;7.756;2023-06-10T00:58:07;6.18;;;4.38;;
53271;SDS011;39160;48.580;7.756;2023-06-10T01:02:59;5.25;;;4.57;;
53271;SDS011;39160;48.580;7.756;2023-06-10T01:07:50;5.75;;;4.50;;
53271;SDS011;39160;48.580;7.756;2023-06-10T01:22:48;4.97;;;4.40;;
53271;SDS011;39160;48.580;7.756;2023-06-10T01:27:38;5.05;;;4.47;;
53271;SDS011;39160;48.580;7.756;2023-06-10T01:32:43;6.15;;;4.40;;
53271;SDS011;39160;48.580;7.756;2023-06-10T01:37:39;5.97;;;5.03;;
53271;SDS011;39160;48.580;7.756;2023-06-10T01:42:33;4.97;;;4.30;;
53271;SDS011;39160;48.580;7.756;2023-06-10T01:47:23;7.40;;;4.80;;
53271;SDS011;39160;48.580;7.756;2023-06-10T01:52:14;5.38;;;4.47;;
53271;SDS011;39160;48.580;7.756;2023-06-10T01:57:05;5.68;;;4.47;;
53271;SDS011;39160;48.580;7.756;2023-06-10T02:01:56;5.68;;;5.05;;
53271;SDS011;39160;48.580;7.756;2023-06-10T02:06:46;6.00;;;4.72;;
53271;SDS011;39160;48.580;7.756;2023-06-10T02:11:38;6.20;;;5.45;;
53271;SDS011;39160;48.580;7.756;2023-06-10T02:16:28;6.95;;;5.07;;
53271;SDS011;39160;48.580;7.756;2023-06-10T02:21:19;5.40;;;4.20;;
53271;SDS011;39160;48.580;7.756;2023-06-10T02:26:10;5.10;;;4.57;;
53271;SDS011;39160;48.580;7.756;2023-06-10T02:31:00;4.65;;;4.20;;
53271;SDS011;39160;48.580;7.756;2023-06-10T02:35:51;7.28;;;5.47;;
53271;SDS011;39160;48.580;7.756;2023-06-10T02:40:42;6.53;;;5.20;;
53271;SDS011;39160;48.580;7.756;2023-06-10T02:45:32;5.82;;;4.88;;
53271;SDS011;39160;48.580;7.756;2023-06-10T02:50:23;7.50;;;5.43;;
53271;SDS011;39160;48.580;7.756;2023-06-10T02:55:14;5.95;;;5.20;;
53271;SDS011;39160;48.580;7.756;2023-06-10T03:00:05;5.30;;;4.40;;
53271;SDS011;39160;48.580;7.756;2023-06-10T03:05:00;10.32;;;6.35;;
53271;SDS011;39160;48.580;7.756;2023-06-10T03:09:50;6.93;;;6.07;;
53271;SDS011;39160;48.580;7.756;2023-06-10T03:14:41;8.80;;;5.88;;
53271;SDS011;39160;48.580;7.756;2023-06-10T03:19:32;6.75;;;6.15;;
53271;SDS011;39160;48.580;7.756;2023-06-10T03:24:23;6.82;;;5.38;;
53271;SDS011;39160;48.580;7.756;2023-06-10T03:29:14;6.57;;;5.40;;
53271;SDS011;39160;48.580;7.756;2023-06-10T03:34:04;7.63;;;5.15;;
53271;SDS011;39160;48.580;7.756;2023-06-10T03:38:55;7.28;;;5.25;;
53271;SDS011;39160;48.580;7.756;2023-06-10T03:43:46;8.05;;;6.00;;
53271;SDS011;39160;48.580;7.756;2023-06-10T03:48:37;7.53;;;5.32;;
53271;SDS011;39160;48.580;7.756;2023-06-10T03:53:28;7.28;;;5.97;;
53271;SDS011;39160;48.580;7.756;2023-06-10T03:58:19;8.73;;;5.90;;
53271;SDS011;39160;48.580;7.756;2023-06-10T04:03:10;7.07;;;5.45;;
53271;SDS011;39160;48.580;7.756;2023-06-10T04:08:04;8.43;;;5.10;;
53271;SDS011;39160;48.580;7.756;2023-06-10T04:12:55;10.77;;;6.30;;
53271;SDS011;39160;48.580;7.756;2023-06-10T04:17:45;6.28;;;5.55;;
53271;SDS011;39160;48.580;7.756;2023-06-10T04:22:36;5.93;;;5.30;;
53271;SDS011;39160;48.580;7.756;2023-06-10T04:27:27;8.75;;;5.40;;
53271;SDS011;39160;48.580;7.756;2023-06-10T04:32:18;6.32;;;4.90;;
53271;SDS011;39160;48.580;7.756;2023-06-10T04:37:08;10.27;;;5.40;;
53271;SDS011;39160;48.580;7.756;2023-06-10T04:41:59;8.15;;;5.30;;
53271;SDS011;39160;48.580;7.756;2023-06-10T04:46:50;8.18;;;5.55;;
53271;SDS011;39160;48.580;7.756;2023-06-10T04:51:41;6.43;;;4.55;;
53271;SDS011;39160;48.580;7.756;2023-06-10T04:56:32;7.45;;;5.40;;
53271;SDS011;39160;48.580;7.756;2023-06-10T05:01:22;6.50;;;5.57;;
53271;SDS011;39160;48.580;7.756;2023-06-10T05:06:13;6.35;;;4.43;;
53271;SDS011;39160;48.580;7.756;2023-06-10T05:11:04;6.80;;;4.78;;
53271;SDS011;39160;48.580;7.756;2023-06-10T05:15:55;5.75;;;5.07;;
53271;SDS011;39160;48.580;7.756;2023-06-10T05:20:45;6.63;;;4.70;;
53271;SDS011;39160;48.580;7.756;2023-06-10T05:25:36;6.60;;;4.35;;
53271;SDS011;39160;48.580;7.756;2023-06-10T05:30:27;5.32;;;4.80;;
53271;SDS011;39160;48.580;7.756;2023-06-10T05:35:18;6.95;;;4.93;;
53271;SDS011;39160;48.580;7.756;2023-06-10T05:40:09;5.18;;;4.28;;
53271;SDS011;39160;48.580;7.756;2023-06-10T05:45:00;5.72;;;4.80;;
53271;SDS011;39160;48.580;7.756;2023-06-10T05:49:50;8.63;;;5.72;;
53271;SDS011;39160;48.580;7.756;2023-06-10T05:54:41;7.82;;;4.88;;
53271;SDS011;39160;48.580;7.756;2023-06-10T05:59:32;5.95;;;5.00;;
53271;SDS011;39160;48.580;7.756;2023-06-10T06:04:22;6.68;;;5.18;;
53271;SDS011;39160;48.580;7.756;2023-06-10T06:09:13;5.60;;;4.53;;
53271;SDS011;39160;48.580;7.756;2023-06-10T06:14:04;6.45;;;4.85;;
53271;SDS011;39160;48.580;7.756;2023-06-10T06:18:54;5.25;;;4.22;;
53271;SDS011;39160;48.580;7.756;2023-06-10T06:23:45;6.10;;;4.88;;
53271;SDS011;39160;48.580;7.756;2023-06-10T06:28:35;7.90;;;5.13;;
53271;SDS011;39160;48.580;7.756;2023-06-10T06:33:26;6.60;;;5.15;;
53271;SDS011;39160;48.580;7.756;2023-06-10T06:38:17;7.05;;;5.45;;
53271;SDS011;39160;48.580;7.756;2023-06-10T06:43:07;5.55;;;4.53;;
53271;SDS011;39160;48.580;7.756;2023-06-10T06:47:58;5.88;;;4.93;;
53271;SDS011;39160;48.580;7.756;2023-06-10T06:52:49;7.47;;;5.03;;
53271;SDS011;39160;48.580;7.756;2023-06-10T06:57:40;5.32;;;4.30;;
53271;SDS011;39160;48.580;7.756;2023-06-10T07:02:30;7.72;;;5.10;;
53271;SDS011;39160;48.580;7.756;2023-06-10T07:07:23;5.55;;;4.70;;
53271;SDS011;39160;48.580;7.756;2023-06-10T07:12:13;6.18;;;4.40;;
53271;SDS011;39160;48.580;7.756;2023-06-10T07:17:04;9.98;;;5.43;;
53271;SDS011;39160;48.580;7.756;2023-06-10T07:21:55;7.15;;;5.50;;
53271;SDS011;39160;48.580;7.756;2023-06-10T07:26:45;11.85;;;5.75;;
53271;SDS011;39160;48.580;7.756;2023-06-10T07:31:36;6.72;;;5.22;;
53271;SDS011;39160;48.580;7.756;2023-06-10T07:36:27;7.13;;;5.45;;
53271;SDS011;39160;48.580;7.756;2023-06-10T07:41:19;6.32;;;5.20;;
53271;SDS011;39160;48.580;7.756;2023-06-10T07:46:10;6.85;;;4.85;;
53271;SDS011;39160;48.580;7.756;2023-06-10T07:51:00;7.15;;;4.53;;
53271;SDS011;39160;48.580;7.756;2023-06-10T07:55:51;8.27;;;6.05;;
53271;SDS011;39160;48.580;7.756;2023-06-10T08:00:42;7.45;;;5.60;;
53271;SDS011;39160;48.580;7.756;2023-06-10T08:05:32;5.95;;;4.57;;
53271;SDS011;39160;48.580;7.756;2023-06-10T08:10:23;6.47;;;4.30;;
53271;SDS011;39160;48.580;7.756;2023-06-10T08:15:13;5.18;;;4.28;;
53271;SDS011;39160;48.580;7.756;2023-06-10T08:20:05;8.30;;;5.03;;
53271;SDS011;39160;48.580;7.756;2023-06-10T08:24:56;6.38;;;4.78;;
53271;SDS011;39160;48.580;7.756;2023-06-10T08:29:47;7.50;;;5.35;;
53271;SDS011;39160;48.580;7.756;2023-06-10T08:34:37;8.07;;;4.95;;
53271;SDS011;39160;48.580;7.756;2023-06-10T08:39:28;5.05;;;4.47;;
53271;SDS011;39160;48.580;7.756;2023-06-10T08:44:22;6.32;;;4.72;;
53271;SDS011;39160;48.580;7.756;2023-06-10T08:49:20;6.15;;;4.32;;
53271;SDS011;39160;48.580;7.756;2023-06-10T08:54:20;6.45;;;4.47;;
53271;SDS011;39160;48.580;7.756;2023-06-10T08:59:13;5.13;;;3.97;;
53271;SDS011;39160;48.580;7.756;2023-06-10T09:04:06;6.15;;;4.85;;
53271;SDS011;39160;48.580;7.756;2023-06-10T09:08:57;6.72;;;4.72;;
53271;SDS011;39160;48.580;7.756;2023-06-10T09:13:49;5.22;;;4.72;;
53271;SDS011;39160;48.580;7.756;2023-06-10T09:18:40;6.47;;;4.95;;
53271;SDS011;39160;48.580;7.756;2023-06-10T09:23:30;5.28;;;4.78;;
53271;SDS011;39160;48.580;7.756;2023-06-10T09:28:21;5.63;;;4.45;;
53271;SDS011;39160;48.580;7.756;2023-06-10T09:33:13;7.13;;;4.75;;
53271;SDS011;39160;48.580;7.756;2023-06-10T09:38:08;6.25;;;4.95;;
53271;SDS011;39160;48.580;7.756;2023-06-10T09:42:59;5.40;;;4.25;;
53271;SDS011;39160;48.580;7.756;2023-06-10T09:47:53;5.45;;;4.93;;
53271;SDS011;39160;48.580;7.756;2023-06-10T09:52:44;5.60;;;3.95;;
53271;SDS011;39160;48.580;7.756;2023-06-10T09:57:37;5.22;;;4.55;;
53271;SDS011;39160;48.580;7.756;2023-06-10T10:02:29;9.77;;;4.15;;
53271;SDS011;39160;48.580;7.756;2023-06-10T10:07:19;5.55;;;3.85;;
53271;SDS011;39160;48.580;7.756;2023-06-10T10:12:11;6.50;;;4.07;;
53271;SDS011;39160;48.580;7.756;2023-06-10T10:17:06;4.93;;;3.92;;
53271;SDS011;39160;48.580;7.756;2023-06-10T10:22:02;6.03;;;4.05;;
53271;SDS011;39160;48.580;7.756;2023-06-10T10:26:59;5.85;;;3.83;;
53271;SDS011;39160;48.580;7.756;2023-06-10T10:31:56;5.03;;;4.15;;
53271;SDS011;39160;48.580;7.756;2023-06-10T10:36:50;4.65;;;3.72;;
53271;SDS011;39160;48.580;7.756;2023-06-10T10:41:41;4.80;;;3.90;;
53271;SDS011;39160;48.580;7.756;2023-06-10T10:46:41;5.60;;;3.35;;
53271;SDS011;39160;48.580;7.756;2023-06-10T10:51:51;5.47;;;3.55;;
53271;SDS011;39160;48.580;7.756;2023-06-10T10:57:09;3.67;;;3.25;;
53271;SDS011;39160;48.580;7.756;2023-06-10T11:06:53;4.25;;;3.85;;
53271;SDS011;39160;48.580;7.756;2023-06-10T11:11:50;5.00;;;2.97;;
53271;SDS011;39160;48.580;7.756;2023-06-10T11:16:42;4.65;;;3.40;;
53271;SDS011;39160;48.580;7.756;2023-06-10T11:21:37;5.30;;;3.42;;
53271;SDS011;39160;48.580;7.756;2023-06-10T11:27:14;5.25;;;3.95;;
53271;SDS011;39160;48.580;7.756;2023-06-10T11:32:08;3.92;;;3.25;;
53271;SDS011;39160;48.580;7.756;2023-06-10T11:36:59;4.05;;;3.28;;
53271;SDS011;39160;48.580;7.756;2023-06-10T11:41:50;4.22;;;3.30;;
53271;SDS011;39160;48.580;7.756;2023-06-10T11:46:41;6.25;;;3.65;;
53271;SDS011;39160;48.580;7.756;2023-06-10T11:51:33;3.63;;;3.08;;
53271;SDS011;39160;48.580;7.756;2023-06-10T11:56:27;3.40;;;2.80;;
53271;SDS011;39160;48.580;7.756;2023-06-10T12:01:22;4.00;;;3.33;;
53271;SDS011;39160;48.580;7.756;2023-06-10T12:06:13;6.65;;;4.28;;
53271;SDS011;39160;48.580;7.756;2023-06-10T12:11:04;3.67;;;3.10;;
53271;SDS011;39160;48.580;7.756;2023-06-10T12:16:05;3.75;;;3.45;;
53271;SDS011;39160;48.580;7.756;2023-06-10T12:20:57;4.65;;;4.07;;
53271;SDS011;39160;48.580;7.756;2023-06-10T12:25:51;4.68;;;3.03;;
53271;SDS011;39160;48.580;7.756;2023-06-10T12:30:43;3.72;;;3.42;;
53271;SDS011;39160;48.580;7.756;2023-06-10T12:35:33;3.72;;;2.97;;
53271;SDS011;39160;48.580;7.756;2023-06-10T12:40:32;5.93;;;3.25;;
53271;SDS011;39160;48.580;7.756;2023-06-10T12:45:27;4.43;;;3.78;;
53271;SDS011;39160;48.580;7.756;2023-06-10T12:50:22;3.70;;;2.90;;
53271;SDS011;39160;48.580;7.756;2023-06-10T12:55:12;7.63;;;3.38;;
53271;SDS011;39160;48.580;7.756;2023-06-10T13:00:03;3.92;;;3.50;;
53271;SDS011;39160;48.580;7.756;2023-06-10T13:04:58;3.83;;;3.53;;
53271;SDS011;39160;48.580;7.756;2023-06-10T13:09:49;3.10;;;2.80;;
53271;SDS011;39160;48.580;7.756;2023-06-10T13:14:39;8.52;;;3.45;;
53271;SDS011;39160;48.580;7.756;2023-06-10T13:19:30;3.58;;;3.05;;
53271;SDS011;39160;48.580;7.756;2023-06-10T13:24:21;3.83;;;3.47;;
53271;SDS011;39160;48.580;7.756;2023-06-10T13:29:12;4.47;;;2.60;;
53271;SDS011;39160;48.580;7.756;2023-06-10T13:34:04;3.80;;;3.10;;
53271;SDS011;39160;48.580;7.756;2023-06-10T13:38:55;3.45;;;3.05;;
53271;SDS011;39160;48.580;7.756;2023-06-10T13:43:45;3.30;;;2.83;;
53271;SDS011;39160;48.580;7.756;2023-06-10T13:48:36;3.40;;;3.00;;
53271;SDS011;39160;48.580;7.756;2023-06-10T13:53:27;5.72;;;3.42;;
53271;SDS011;39160;48.580;7.756;2023-06-10T13:58:17;3.40;;;3.07;;
53271;SDS011;39160;48.580;7.756;2023-06-10T14:03:08;3.53;;;3.23;;
53271;SDS011;39160;48.580;7.756;2023-06-10T14:08:02;5.47;;;3.50;;
53271;SDS011;39160;48.580;7.756;2023-06-10T14:12:52;3.47;;;3.15;;
53271;SDS011;39160;48.580;7.756;2023-06-10T14:17:43;3.45;;;3.15;;
53271;SDS011;39160;48.580;7.756;2023-06-10T14:27:24;3.27;;;3.07;;
53271;SDS011;39160;48.580;7.756;2023-06-10T14:32:15;3.88;;;3.47;;
53271;SDS011;39160;48.580;7.756;2023-06-10T14:37:06;3.35;;;3.05;;
53271;SDS011;39160;48.580;7.756;2023-06-10T14:41:57;3.65;;;3.33;;
53271;SDS011;39160;48.580;7.756;2023-06-10T14:46:48;3.28;;;2.97;;
53271;SDS011;39160;48.580;7.756;2023-06-10T14:51:38;3.58;;;3.00;;
53271;SDS011;39160;48.580;7.756;2023-06-10T14:56:29;4.97;;;3.28;;
53271;SDS011;39160;48.580;7.756;2023-06-10T15:01:20;4.07;;;3.33;;
53271;SDS011;39160;48.580;7.756;2023-06-10T15:06:10;3.90;;;3.58;;
53271;SDS011;39160;48.580;7.756;2023-06-10T15:11:01;3.78;;;3.25;;
53271;SDS011;39160;48.580;7.756;2023-06-10T15:15:52;6.25;;;3.03;;
53271;SDS011;39160;48.580;7.756;2023-06-10T15:20:43;5.47;;;3.30;;
53271;SDS011;39160;48.580;7.756;2023-06-10T15:25:33;3.20;;;2.92;;
53271;SDS011;39160;48.580;7.756;2023-06-10T15:30:24;5.38;;;3.38;;
53271;SDS011;39160;48.580;7.756;2023-06-10T15:35:15;3.40;;;3.10;;
53271;SDS011;39160;48.580;7.756;2023-06-10T15:40:06;3.25;;;3.05;;
53271;SDS011;39160;48.580;7.756;2023-06-10T15:44:57;3.53;;;3.20;;
53271;SDS011;39160;48.580;7.756;2023-06-10T15:54:38;3.63;;;3.33;;
53271;SDS011;39160;48.580;7.756;2023-06-10T16:04:19;4.03;;;3.47;;
53271;SDS011;39160;48.580;7.756;2023-06-10T16:14:01;3.13;;;2.77;;
53271;SDS011;39160;48.580;7.756;2023-06-10T16:18:51;3.60;;;3.30;;
53271;SDS011;39160;48.580;7.756;2023-06-10T16:23:43;3.35;;;3.05;;
53271;SDS011;39160;48.580;7.756;2023-06-10T16:28:33;5.22;;;3.28;;
53271;SDS011;39160;48.580;7.756;2023-06-10T16:33:24;4.50;;;3.40;;
53271;SDS011;39160;48.580;7.756;2023-06-10T16:38:14;4.68;;;4.18;;
53271;SDS011;39160;48.580;7.756;2023-06-10T16:43:05;3.78;;;3.47;;
53271;SDS011;39160;48.580;7.756;2023-06-10T16:47:56;2.78;;;2.58;;
53271;SDS011;39160;48.580;7.756;2023-06-10T16:52:46;4.55;;;3.30;;
53271;SDS011;39160;48.580;7.756;2023-06-10T16:57:37;2.97;;;2.78;;
53271;SDS011;39160;48.580;7.756;2023-06-10T17:02:27;5.10;;;3.13;;
53271;SDS011;39160;48.580;7.756;2023-06-10T17:07:18;3.83;;;3.40;;
53271;SDS011;39160;48.580;7.756;2023-06-10T17:12:10;4.85;;;3.08;;
53271;SDS011;39160;48.580;7.756;2023-06-10T17:17:01;3.70;;;2.97;;
53271;SDS011;39160;48.580;7.756;2023-06-10T17:21:51;3.42;;;2.55;;
53271;SDS011;39160;48.580;7.756;2023-06-10T17:26:42;3.30;;;3.00;;
53271;SDS011;39160;48.580;7.756;2023-06-10T17:31:33;3.25;;;2.65;;
53271;SDS011;39160;48.580;7.756;2023-06-10T17:36:23;3.97;;;3.10;;
53271;SDS011;39160;48.580;7.756;2023-06-10T17:41:14;3.35;;;3.00;;
53271;SDS011;39160;48.580;7.756;2023-06-10T17:46:04;3.25;;;2.95;;
53271;SDS011;39160;48.580;7.756;2023-06-10T17:55:46;5.30;;;3.10;;
53271;SDS011;39160;48.580;7.756;2023-06-10T18:00:36;3.93;;;3.53;;
53271;SDS011;39160;48.580;7.756;2023-06-10T18:05:27;3.60;;;3.30;;
53271;SDS011;39160;48.580;7.756;2023-06-10T18:10:18;4.05;;;3.20;;
53271;SDS011;39160;48.580;7.756;2023-06-10T18:15:10;3.30;;;2.85;;
53271;SDS011;39160;48.580;7.756;2023-06-10T18:20:01;3.97;;;3.30;;
53271;SDS011;39160;48.580;7.756;2023-06-10T18:24:52;5.00;;;3.15;;
53271;SDS011;39160;48.580;7.756;2023-06-10T18:29:43;3.95;;;3.28;;
53271;SDS011;39160;48.580;7.756;2023-06-10T18:34:33;3.90;;;3.38;;
53271;SDS011;39160;48.580;7.756;2023-06-10T18:39:26;6.20;;;4.70;;
53271;SDS011;39160;48.580;7.756;2023-06-10T18:44:17;4.38;;;3.97;;
53271;SDS011;39160;48.580;7.756;2023-06-10T18:49:07;5.32;;;3.72;;
53271;SDS011;39160;48.580;7.756;2023-06-10T18:53:58;4.50;;;3.25;;
53271;SDS011;39160;48.580;7.756;2023-06-10T18:58:48;5.20;;;3.92;;
53271;SDS011;39160;48.580;7.756;2023-06-10T19:03:39;5.80;;;3.33;;
53271;SDS011;39160;48.580;7.756;2023-06-10T19:08:30;3.78;;;3.08;;
53271;SDS011;39160;48.580;7.756;2023-06-10T19:13:21;4.05;;;3.33;;
53271;SDS011;39160;48.580;7.756;2023-06-10T19:18:13;4.00;;;3.15;;
53271;SDS011;39160;48.580;7.756;2023-06-10T19:23:03;3.83;;;3.53;;
53271;SDS011;39160;48.580;7.756;2023-06-10T19:27:54;7.00;;;3.20;;
53271;SDS011;39160;48.580;7.756;2023-06-10T19:32:45;3.78;;;3.08;;
53271;SDS011;39160;48.580;7.756;2023-06-10T19:37:35;3.80;;;3.40;;
53271;SDS011;39160;48.580;7.756;2023-06-10T19:42:26;3.83;;;3.47;;
53271;SDS011;39160;48.580;7.756;2023-06-10T19:47:17;3.17;;;2.88;;
53271;SDS011;39160;48.580;7.756;2023-06-10T19:52:07;4.63;;;3.47;;
53271;SDS011;39160;48.580;7.756;2023-06-10T19:56:58;5.63;;;3.47;;
53271;SDS011;39160;48.580;7.756;2023-06-10T20:01:49;3.97;;;3.38;;
53271;SDS011;39160;48.580;7.756;2023-06-10T20:06:40;4.80;;;3.33;;
53271;SDS011;39160;48.580;7.756;2023-06-10T20:11:31;3.75;;;3.35;;
53271;SDS011;39160;48.580;7.756;2023-06-10T20:16:21;4.10;;;3.50;;
53271;SDS011;39160;48.580;7.756;2023-06-10T20:21:12;5.30;;;3.63;;
53271;SDS011;39160;48.580;7.756;2023-06-10T20:26:05;3.90;;;3.33;;
53271;SDS011;39160;48.580;7.756;2023-06-10T20:30:56;4.55;;;3.40;;
53271;SDS011;39160;48.580;7.756;2023-06-10T20:35:47;5.30;;;3.50;;
53271;SDS011;39160;48.580;7.756;2023-06-10T20:40:37;5.72;;;3.30;;
53271;SDS011;39160;48.580;7.756;2023-06-10T20:45:28;4.18;;;3.13;;
53271;SDS011;39160;48.580;7.756;2023-06-10T20:50:19;5.22;;;4.10;;
53271;SDS011;39160;48.580;7.756;2023-06-10T20:55:10;9.23;;;5.68;;
53271;SDS011;39160;48.580;7.756;2023-06-10T21:00:00;6.90;;;4.25;;
53271;SDS011;39160;48.580;7.756;2023-06-10T21:04:51;6.88;;;4.70;;
53271;SDS011;39160;48.580;7.756;2023-06-10T21:09:42;4.78;;;3.55;;
53271;SDS011;39160;48.580;7.756;2023-06-10T21:14:32;5.13;;;3.47;;
53271;SDS011;39160;48.580;7.756;2023-06-10T21:19:23;5.20;;;3.70;;
53271;SDS011;39160;48.580;7.756;2023-06-10T21:24:14;4.90;;;3.88;;
53271;SDS011;39160;48.580;7.756;2023-06-10T21:29:04;4.38;;;3.42;;
53271;SDS011;39160;48.580;7.756;2023-06-10T21:33:55;7.20;;;4.13;;
53271;SDS011;39160;48.580;7.756;2023-06-10T21:38:46;5.82;;;3.95;;
53271;SDS011;39160;48.580;7.756;2023-06-10T21:43:37;9.32;;;6.00;;
53271;SDS011;39160;48.580;7.756;2023-06-10T21:48:31;7.57;;;4.50;;
53271;SDS011;39160;48.580;7.756;2023-06-10T21:53:22;6.05;;;4.55;;
53271;SDS011;39160;48.580;7.756;2023-06-10T21:58:13;5.88;;;4.38;;
53271;SDS011;39160;48.580;7.756;2023-06-10T22:03:04;6.93;;;4.22;;
53271;SDS011;39160;48.580;7.756;2023-06-10T22:07:55;7.50;;;4.63;;
53271;SDS011;39160;48.580;7.756;2023-06-10T22:12:45;7.05;;;4.60;;
53271;SDS011;39160;48.580;7.756;2023-06-10T22:17:36;4.35;;;3.90;;
53271;SDS011;39160;48.580;7.756;2023-06-10T22:22:27;7.07;;;4.45;;
53271;SDS011;39160;48.580;7.756;2023-06-10T22:27:17;5.38;;;4.88;;
53271;SDS011;39160;48.580;7.756;2023-06-10T22:32:08;8.77;;;4.85;;
53271;SDS011;39160;48.580;7.756;2023-06-10T22:36:58;5.63;;;4.45;;
53271;SDS011;39160;48.580;7.756;2023-06-10T22:41:49;4.85;;;4.10;;
53271;SDS011;39160;48.580;7.756;2023-06-10T22:46:40;6.70;;;4.15;;
53271;SDS011;39160;48.580;7.756;2023-06-10T22:51:31;8.23;;;5.28;;
53271;SDS011;39160;48.580;7.756;2023-06-10T22:56:22;5.63;;;4.00;;
53271;SDS011;39160;48.580;7.756;2023-06-10T23:01:13;6.75;;;4.13;;
53271;SDS011;39160;48.580;7.756;2023-06-10T23:06:04;8.38;;;4.65;;
53271;SDS011;39160;48.580;7.756;2023-06-10T23:10:55;10.77;;;6.07;;
53271;SDS011;39160;48.580;7.756;2023-06-10T23:15:45;6.70;;;4.57;;
53271;SDS011;39160;48.580;7.756;2023-06-10T23:20:36;5.90;;;4.35;;
53271;SDS011;39160;48.580;7.756;2023-06-10T23:25:27;6.93;;;4.35;;
53271;SDS011;39160;48.580;7.756;2023-06-10T23:30:18;7.97;;;5.05;;
53271;SDS011;39160;48.580;7.756;2023-06-10T23:35:09;6.50;;;4.53;;
53271;SDS011;39160;48.580;7.756;2023-06-10T23:40:01;8.95;;;4.45;;
53271;SDS011;39160;48.580;7.756;2023-06-10T23:44:52;5.95;;;3.72;;
53271;SDS011;39160;48.580;7.756;2023-06-10T23:49:42;4.22;;;3.13;;
53271;SDS011;39160;48.580;7.756;2023-06-10T23:54:33;4.50;;;3.58;;
53271;SDS011;39160;48.580;7.756;2023-06-10T23:59:24;4.55;;;3.38;;
